Clovis/Cannon AFB, New Mexico
Current Conditions -  °F | °C
As of 11:58 PM on Sunday 21 Dec 2014 (Local Time) from KCVS Reporting Station
Clear Clear  
Wind Chill: 39°   Ceiling: Unl
Heat Index: 45°   Visibility: 10mi
Dew Point: 28°   Wind: 13mph
Humidity: 52%   Direction: 270°W
Pressure: 29.69"   Gusts: NA
Location:  34.38°N, 103.32°W
Report Text: KCVS 220658Z AUTO 27011KT 10SM CLR 07/M02 A2969 RMK AO2 SLP029 T00721020 401631010 $
Loading
Personal Weather Stations






























Interactive Weather Map New forecast layout! Learn more

10-Day Weather Forecast

Advertisements
Track Severe Weather on mobile